Time;durP1;ratioP1;P1;durP2;ratioP2;P2;SDS_P1;SDS_P2;PMS_P1;PMS_P2;Temp;Humidity;BMP_temperature;BMP_pressure;BME280_temperature;BME280_humidity;BME280_pressure;Samples;Min_cycle;Max_cycle;Signal;HPM_P1;HPM_P2
2023/03/30 00:00:59;;;;;;;3.00;1.20;;;;;;;;;;5042662;28;20124;-89
2023/03/30 00:03:26;;;;;;;3.60;1.50;;;;;;;;;;5035319;28;20489;-87
2023/03/30 00:05:55;;;;;;;2.05;1.17;;;;;;;;;;5021328;28;20041;-86
2023/03/30 00:08:27;;;;;;;4.18;1.50;;;;;;;;;;5034734;28;20103;-87
2023/03/30 00:11:10;;;;;;;4.97;1.67;;;;;;;;;;5036067;28;20043;-87
2023/03/30 00:13:37;;;;;;;3.95;1.70;;;;;;;;;;5034804;28;20091;-86
2023/03/30 00:16:05;;;;;;;4.70;1.70;;;;;;;;;;5030678;28;20046;-87
2023/03/30 00:18:30;;;;;;;3.95;1.70;;;;;;;;;;5050801;23;20156;-84
2023/03/30 00:20:57;;;;;;;4.38;1.73;;;;;;;;;;5035936;28;20426;-84
2023/03/30 00:23:22;;;;;;;3.75;1.58;;;;;;;;;;5037260;28;20043;-83
2023/03/30 00:25:48;;;;;;;3.25;1.60;;;;;;;;;;5036108;28;20120;-85
2023/03/30 00:28:13;;;;;;;4.85;1.40;;;;;;;;;;5031966;28;20033;-85
2023/03/30 00:30:40;;;;;;;5.95;1.40;;;;;;;;;;5015278;28;20056;-83
2023/03/30 00:33:06;;;;;;;4.00;1.30;;;;;;;;;;5024107;28;20033;-87
2023/03/30 00:35:32;;;;;;;4.25;1.60;;;;;;;;;;5014220;28;20033;-84
2023/03/30 00:38:02;;;;;;;2.45;1.30;;;;;;;;;;5028117;28;20120;-84
2023/03/30 00:40:29;;;;;;;7.05;1.70;;;;;;;;;;5012585;28;20038;-84
2023/03/30 00:43:03;;;;;;;3.70;1.38;;;;;;;;;;5004262;28;20038;-86
2023/03/30 00:45:36;;;;;;;4.90;1.40;;;;;;;;;;5014235;28;20061;-85
2023/03/30 00:48:11;;;;;;;5.90;1.40;;;;;;;;;;4998961;28;20040;-85
2023/03/30 00:50:51;;;;;;;5.50;1.50;;;;;;;;;;5015730;28;20276;-86
2023/03/30 00:53:24;;;;;;;4.40;1.30;;;;;;;;;;5002351;28;20049;-85
2023/03/30 00:55:52;;;;;;;9.10;1.75;;;;;;;;;;4998573;28;20061;-84
2023/03/30 00:58:20;;;;;;;4.40;1.30;;;;;;;;;;4996079;28;20095;-84
2023/03/30 01:00:46;;;;;;;9.10;1.50;;;;;;;;;;5011500;28;20037;-85
2023/03/30 01:03:20;;;;;;;6.22;1.50;;;;;;;;;;5015772;28;20040;-86
2023/03/30 01:05:46;;;;;;;2.45;1.23;;;;;;;;;;5015599;28;20034;-85
2023/03/30 01:08:15;;;;;;;2.45;1.30;;;;;;;;;;5011244;28;20034;-85
2023/03/30 01:10:42;;;;;;;4.97;1.42;;;;;;;;;;5013301;28;20049;-83
2023/03/30 01:13:09;;;;;;;3.10;1.17;;;;;;;;;;5014899;28;20038;-85
2023/03/30 01:15:39;;;;;;;7.57;1.20;;;;;;;;;;5013448;28;20056;-84
2023/03/30 01:18:09;;;;;;;4.93;1.60;;;;;;;;;;5027597;28;20040;-85
2023/03/30 01:21:00;;;;;;;4.97;2.50;;;;;;;;;;5016161;28;20038;-84
2023/03/30 01:24:03;;;;;;;3.33;1.17;;;;;;;;;;5007689;28;20065;-84
2023/03/30 01:26:55;;;;;;;3.70;1.40;;;;;;;;;;5007148;28;20128;-84
2023/03/30 01:29:43;;;;;;;5.95;1.40;;;;;;;;;;5016022;28;20037;-85
2023/03/30 01:32:17;;;;;;;2.25;1.33;;;;;;;;;;5020714;28;20029;-84
2023/03/30 01:34:52;;;;;;;3.63;1.15;;;;;;;;;;5014996;28;20061;-84
2023/03/30 01:37:32;;;;;;;5.32;1.25;;;;;;;;;;5016533;28;20034;-83
2023/03/30 01:40:05;;;;;;;3.13;1.40;;;;;;;;;;5015175;28;20057;-85
2023/03/30 01:42:56;;;;;;;5.82;1.48;;;;;;;;;;5015300;28;20041;-84
2023/03/30 01:45:32;;;;;;;2.58;1.10;;;;;;;;;;5014812;28;20501;-84
2023/03/30 01:48:12;;;;;;;5.28;1.45;;;;;;;;;;5002322;28;20068;-84
2023/03/30 01:50:45;;;;;;;2.95;1.30;;;;;;;;;;5009280;28;20043;-85
2023/03/30 01:53:17;;;;;;;3.17;1.30;;;;;;;;;;5022203;28;20034;-85
2023/03/30 01:55:56;;;;;;;3.25;1.35;;;;;;;;;;5009132;28;20041;-86
2023/03/30 01:58:22;;;;;;;4.78;1.55;;;;;;;;;;5013078;28;20122;-85
2023/03/30 02:00:49;;;;;;;4.70;1.50;;;;;;;;;;5008829;28;20045;-85
2023/03/30 02:03:23;;;;;;;3.38;1.30;;;;;;;;;;5019711;28;20513;-86
2023/03/30 02:05:52;;;;;;;3.33;1.08;;;;;;;;;;5020931;28;20110;-86
2023/03/30 02:08:22;;;;;;;4.00;1.25;;;;;;;;;;5030215;28;20084;-85
2023/03/30 02:10:50;;;;;;;2.28;1.20;;;;;;;;;;5030335;28;20038;-85
2023/03/30 02:13:16;;;;;;;2.95;1.02;;;;;;;;;;5021042;28;20089;-85
2023/03/30 02:15:47;;;;;;;5.80;1.70;;;;;;;;;;5021526;28;20082;-86
2023/03/30 02:18:13;;;;;;;5.05;1.40;;;;;;;;;;5021325;28;20097;-84
2023/03/30 02:20:39;;;;;;;3.28;1.20;;;;;;;;;;5020075;28;20036;-86
2023/03/30 02:23:06;;;;;;;5.72;1.25;;;;;;;;;;5020163;28;20112;-85
2023/03/30 02:25:35;;;;;;;4.38;1.15;;;;;;;;;;5018848;28;20104;-85
2023/03/30 02:28:01;;;;;;;5.95;1.40;;;;;;;;;;5028648;28;20108;-84
2023/03/30 02:30:35;;;;;;;3.63;1.50;;;;;;;;;;5018450;28;20062;-85
2023/03/30 02:33:02;;;;;;;4.28;1.25;;;;;;;;;;5020978;28;20073;-86
2023/03/30 02:35:33;;;;;;;5.40;1.45;;;;;;;;;;5018275;28;20034;-85
2023/03/30 02:38:24;;;;;;;7.43;2.10;;;;;;;;;;4999650;28;20042;-85
2023/03/30 02:41:17;;;;;;;4.25;1.50;;;;;;;;;;5032396;28;20030;-85
2023/03/30 02:44:05;;;;;;;3.13;1.30;;;;;;;;;;5007131;28;20038;-85
2023/03/30 02:46:50;;;;;;;2.65;1.42;;;;;;;;;;5013128;28;20304;-83
2023/03/30 02:49:21;;;;;;;6.40;1.50;;;;;;;;;;5015147;28;20034;-86
2023/03/30 02:52:01;;;;;;;5.55;1.52;;;;;;;;;;5017806;28;20528;-85
2023/03/30 02:54:44;;;;;;;4.82;1.23;;;;;;;;;;5011375;28;20033;-85
2023/03/30 02:57:21;;;;;;;4.00;1.35;;;;;;;;;;5016671;28;20080;-86
2023/03/30 02:59:47;;;;;;;4.43;1.45;;;;;;;;;;4996468;28;20170;-85
2023/03/30 03:02:21;;;;;;;3.28;1.27;;;;;;;;;;5033517;28;20065;-86
2023/03/30 03:04:55;;;;;;;5.20;1.42;;;;;;;;;;5031393;28;20037;-84
2023/03/30 03:07:41;;;;;;;3.13;1.45;;;;;;;;;;5023162;28;20037;-84
2023/03/30 03:10:07;;;;;;;7.75;1.25;;;;;;;;;;5017715;28;20109;-86
2023/03/30 03:12:34;;;;;;;4.32;1.52;;;;;;;;;;5014236;28;20573;-85
2023/03/30 03:15:00;;;;;;;7.18;1.55;;;;;;;;;;4984623;28;20033;-84
2023/03/30 03:17:33;;;;;;;6.32;1.50;;;;;;;;;;5014312;28;20120;-84
2023/03/30 03:20:06;;;;;;;5.03;1.27;;;;;;;;;;5033942;28;20473;-85
2023/03/30 03:22:32;;;;;;;6.97;1.33;;;;;;;;;;5005754;28;20125;-85
2023/03/30 03:24:58;;;;;;;3.83;1.27;;;;;;;;;;5025530;28;20049;-86
2023/03/30 03:27:42;;;;;;;6.82;1.45;;;;;;;;;;5019200;28;20048;-84
2023/03/30 03:30:19;;;;;;;4.65;1.63;;;;;;;;;;5017202;28;20475;-85
2023/03/30 03:32:54;;;;;;;2.80;1.30;;;;;;;;;;5017494;28;20406;-85
2023/03/30 03:35:21;;;;;;;7.32;1.67;;;;;;;;;;5028807;28;20029;-84
2023/03/30 03:37:47;;;;;;;2.92;1.30;;;;;;;;;;5016559;28;20376;-85
2023/03/30 03:40:13;;;;;;;8.18;1.42;;;;;;;;;;5017033;28;20041;-85
2023/03/30 03:42:39;;;;;;;8.23;1.73;;;;;;;;;;5021923;28;20097;-85
2023/03/30 03:45:11;;;;;;;6.35;1.40;;;;;;;;;;5019306;28;20034;-87
2023/03/30 03:47:52;;;;;;;3.97;1.40;;;;;;;;;;5016608;28;20038;-86
2023/03/30 03:50:31;;;;;;;3.35;1.40;;;;;;;;;;5013690;28;20402;-85
2023/03/30 03:52:57;;;;;;;7.40;1.60;;;;;;;;;;5025118;28;20039;-86
2023/03/30 03:55:23;;;;;;;5.20;1.73;;;;;;;;;;5012846;28;20040;-85
2023/03/30 03:57:50;;;;;;;7.40;1.70;;;;;;;;;;5012397;28;20025;-86
2023/03/30 04:00:16;;;;;;;5.68;1.65;;;;;;;;;;5014509;28;20456;-84
2023/03/30 04:02:45;;;;;;;6.75;1.80;;;;;;;;;;5020991;28;20053;-85
2023/03/30 04:05:11;;;;;;;6.90;1.80;;;;;;;;;;5015539;28;20568;-84
2023/03/30 04:07:37;;;;;;;5.32;2.00;;;;;;;;;;5027039;28;20076;-86
2023/03/30 04:10:04;;;;;;;4.18;1.63;;;;;;;;;;5000256;28;20087;-84
2023/03/30 04:12:49;;;;;;;4.28;1.60;;;;;;;;;;5004558;28;20421;-84
2023/03/30 04:15:35;;;;;;;6.07;1.38;;;;;;;;;;5015695;28;20115;-85
2023/03/30 04:18:14;;;;;;;8.50;2.88;;;;;;;;;;5001117;28;20409;-84
2023/03/30 04:21:04;;;;;;;5.93;1.58;;;;;;;;;;5010994;28;20132;-85
2023/03/30 04:23:48;;;;;;;4.68;1.77;;;;;;;;;;5025624;28;20417;-85
2023/03/30 04:26:17;;;;;;;4.30;1.75;;;;;;;;;;5015031;28;20046;-85
2023/03/30 04:28:54;;;;;;;4.90;1.52;;;;;;;;;;5016713;28;20520;-84
2023/03/30 04:31:40;;;;;;;6.32;2.15;;;;;;;;;;5020706;28;20049;-85
2023/03/30 04:34:08;;;;;;;4.13;1.40;;;;;;;;;;5016066;28;20092;-86
2023/03/30 04:36:52;;;;;;;4.97;1.48;;;;;;;;;;5001598;28;20038;-85
2023/03/30 04:39:29;;;;;;;7.80;1.42;;;;;;;;;;5014843;28;20034;-84
2023/03/30 04:42:14;;;;;;;7.35;1.30;;;;;;;;;;5015848;28;20041;-85
2023/03/30 04:45:17;;;;;;;7.38;1.70;;;;;;;;;;5002069;28;20030;-84
2023/03/30 04:48:18;;;;;;;7.30;1.80;;;;;;;;;;5019417;28;20057;-85
2023/03/30 04:51:19;;;;;;;8.50;1.70;;;;;;;;;;5005113;28;20034;-84
2023/03/30 04:54:03;;;;;;;6.68;1.70;;;;;;;;;;5009895;28;20048;-85
2023/03/30 04:56:47;;;;;;;6.40;1.70;;;;;;;;;;5016082;28;20084;-85
2023/03/30 04:59:32;;;;;;;4.32;1.60;;;;;;;;;;5015396;28;20060;-85
2023/03/30 05:02:16;;;;;;;7.13;1.70;;;;;;;;;;5016524;28;20069;-84
2023/03/30 05:05:11;;;;;;;7.63;1.80;;;;;;;;;;5013619;28;20066;-86
2023/03/30 05:07:45;;;;;;;4.45;1.70;;;;;;;;;;5017546;28;20045;-86
2023/03/30 05:10:37;;;;;;;8.18;1.80;;;;;;;;;;5007950;28;20500;-87
2023/03/30 05:13:23;;;;;;;7.10;1.90;;;;;;;;;;4996089;28;20129;-85
2023/03/30 05:16:22;;;;;;;5.95;1.90;;;;;;;;;;5014448;28;20044;-86
2023/03/30 05:19:09;;;;;;;7.10;1.67;;;;;;;;;;5016344;28;20041;-85
2023/03/30 05:21:50;;;;;;;4.97;1.70;;;;;;;;;;5015075;28;20037;-85
2023/03/30 05:24:25;;;;;;;7.78;1.90;;;;;;;;;;5020237;28;20034;-85
2023/03/30 05:27:13;;;;;;;9.93;1.73;;;;;;;;;;5028526;28;20490;-86
2023/03/30 05:29:56;;;;;;;5.45;1.55;;;;;;;;;;5018298;28;20487;-86
2023/03/30 05:32:41;;;;;;;3.97;1.95;;;;;;;;;;5013929;28;20220;-86
2023/03/30 05:35:45;;;;;;;;;;;;;;;;;;5022201;28;20030;-85
2023/03/30 05:38:37;;;;;;;9.25;2.17;;;;;;;;;;5005301;28;19972;-86
2023/03/30 05:41:30;;;;;;;6.28;1.85;;;;;;;;;;4998917;28;20034;-86
2023/03/30 05:44:22;;;;;;;6.78;1.73;;;;;;;;;;5027945;28;20061;-83
2023/03/30 05:46:55;;;;;;;6.20;1.90;;;;;;;;;;5018383;28;20042;-83
2023/03/30 05:49:47;;;;;;;3.83;1.77;;;;;;;;;;5023348;28;20029;-86
2023/03/30 05:52:39;;;;;;;7.72;2.00;;;;;;;;;;5010219;28;20101;-87
2023/03/30 05:55:30;;;;;;;6.28;2.00;;;;;;;;;;5008967;28;20137;-86
2023/03/30 05:58:16;;;;;;;6.28;2.00;;;;;;;;;;5004264;28;20061;-86
2023/03/30 06:01:09;;;;;;;4.68;1.80;;;;;;;;;;5007264;28;20033;-84
2023/03/30 06:03:38;;;;;;;4.95;1.90;;;;;;;;;;5034673;28;20083;-84
2023/03/30 06:06:05;;;;;;;5.60;2.17;;;;;;;;;;5028387;28;20111;-85
2023/03/30 06:08:31;;;;;;;5.35;1.67;;;;;;;;;;5019779;28;20036;-86
2023/03/30 06:11:01;;;;;;;4.63;1.80;;;;;;;;;;5020165;28;20044;-84
2023/03/30 06:13:32;;;;;;;6.85;2.00;;;;;;;;;;5028011;28;20391;-85
2023/03/30 06:15:58;;;;;;;5.43;1.80;;;;;;;;;;5018016;28;20050;-84
2023/03/30 06:21:08;;;;;;;6.95;2.00;;;;;;;;;;4921289;29;20457;-85
2023/03/30 06:24:06;;;;;;;7.60;2.38;;;;;;;;;;4908470;29;20044;-87
2023/03/30 06:26:34;;;;;;;6.47;2.03;;;;;;;;;;4923489;29;20036;-86
2023/03/30 06:29:00;;;;;;;8.65;2.53;;;;;;;;;;4928179;29;20041;-85
2023/03/30 06:31:26;;;;;;;7.55;3.83;;;;;;;;;;4943241;29;20043;-87
2023/03/30 06:34:14;;;;;;;13.50;5.65;;;;;;;;;;4926557;29;20025;-87
2023/03/30 06:36:40;;;;;;;10.80;5.63;;;;;;;;;;4943443;28;20036;-88
2023/03/30 06:39:08;;;;;;;7.07;2.95;;;;;;;;;;4945266;29;20512;-87
2023/03/30 06:41:34;;;;;;;8.25;3.10;;;;;;;;;;4941526;29;20040;-86
2023/03/30 06:44:02;;;;;;;6.10;3.47;;;;;;;;;;4927337;29;20488;-87
2023/03/30 06:46:33;;;;;;;6.80;2.50;;;;;;;;;;4929584;29;20032;-87
2023/03/30 06:48:58;;;;;;;7.47;2.88;;;;;;;;;;4926324;29;20039;-86
2023/03/30 06:51:56;;;;;;;10.15;2.55;;;;;;;;;;4928612;29;20036;-86
2023/03/30 06:54:23;;;;;;;8.05;2.47;;;;;;;;;;4926621;29;20453;-86
2023/03/30 06:56:54;;;;;;;7.80;2.17;;;;;;;;;;4941643;28;20525;-86
2023/03/30 06:59:20;;;;;;;8.30;2.30;;;;;;;;;;4944052;29;20043;-88
2023/03/30 07:02:25;;;;;;;5.80;1.95;;;;;;;;;;4944799;29;20027;-91
2023/03/30 07:05:09;;;;;;;9.65;2.35;;;;;;;;;;4947812;29;20055;-85
2023/03/30 07:07:58;;;;;;;7.22;1.90;;;;;;;;;;4928930;29;20507;-89
2023/03/30 07:10:24;;;;;;;8.13;2.60;;;;;;;;;;4926161;29;20039;-86
2023/03/30 07:12:50;;;;;;;10.32;3.00;;;;;;;;;;4948180;29;20054;-85
2023/03/30 07:15:17;;;;;;;8.88;3.40;;;;;;;;;;4934391;29;20024;-88
2023/03/30 07:17:43;;;;;;;6.80;3.00;;;;;;;;;;4932013;29;20043;-87
2023/03/30 07:20:10;;;;;;;8.63;3.10;;;;;;;;;;4926732;29;20245;-88
2023/03/30 07:22:51;;;;;;;7.90;2.60;;;;;;;;;;4949352;29;20119;-88
2023/03/30 07:25:17;;;;;;;9.45;4.07;;;;;;;;;;4934413;29;20040;-88
2023/03/30 07:27:43;;;;;;;6.20;2.42;;;;;;;;;;4946290;28;20067;-88
2023/03/30 07:30:09;;;;;;;6.97;2.35;;;;;;;;;;4925608;29;20051;-87
2023/03/30 07:32:35;;;;;;;8.45;2.40;;;;;;;;;;4924115;29;20046;-89
2023/03/30 07:35:03;;;;;;;7.20;2.50;;;;;;;;;;4932230;29;20449;-89
2023/03/30 07:37:29;;;;;;;7.43;2.00;;;;;;;;;;4944924;29;20042;-90
2023/03/30 07:39:55;;;;;;;5.78;1.70;;;;;;;;;;4935851;29;20122;-90
2023/03/30 07:42:21;;;;;;;9.90;1.90;;;;;;;;;;4923663;29;20114;-90
2023/03/30 07:44:48;;;;;;;8.43;2.40;;;;;;;;;;4928232;29;20032;-86
2023/03/30 07:47:16;;;;;;;5.35;1.73;;;;;;;;;;4929079;29;20043;-88
2023/03/30 07:49:42;;;;;;;7.90;1.70;;;;;;;;;;4926292;29;20363;-83
2023/03/30 07:52:08;;;;;;;4.72;1.95;;;;;;;;;;4941112;28;20042;-88
2023/03/30 07:54:48;;;;;;;10.27;1.52;;;;;;;;;;4923470;29;20552;-86
2023/03/30 07:57:16;;;;;;;9.80;2.30;;;;;;;;;;4941125;28;20039;-85
2023/03/30 07:59:42;;;;;;;9.45;2.17;;;;;;;;;;4925066;29;20043;-86
2023/03/30 08:02:25;;;;;;;8.02;1.67;;;;;;;;;;4938212;29;20123;-86
2023/03/30 08:04:53;;;;;;;7.68;1.85;;;;;;;;;;4940293;29;20486;-85
2023/03/30 08:07:29;;;;;;;11.60;2.00;;;;;;;;;;4940334;29;20036;-86
2023/03/30 08:10:01;;;;;;;5.78;1.48;;;;;;;;;;4924985;29;20062;-86
2023/03/30 08:12:27;;;;;;;9.88;2.30;;;;;;;;;;4928258;29;20126;-86
2023/03/30 08:14:54;;;;;;;7.38;2.15;;;;;;;;;;4923537;29;20063;-85
2023/03/30 08:17:20;;;;;;;13.93;2.40;;;;;;;;;;4925892;29;20036;-85
2023/03/30 08:19:45;;;;;;;8.27;2.20;;;;;;;;;;4926274;29;20040;-86
2023/03/30 08:22:11;;;;;;;7.78;2.05;;;;;;;;;;4921255;29;20071;-86
2023/03/30 08:24:36;;;;;;;5.45;1.80;;;;;;;;;;4935593;29;20036;-85
2023/03/30 08:27:02;;;;;;;6.32;1.83;;;;;;;;;;4925014;29;20501;-86
2023/03/30 08:29:30;;;;;;;6.28;1.88;;;;;;;;;;4922840;29;20493;-85
2023/03/30 08:31:56;;;;;;;7.65;1.73;;;;;;;;;;4941617;29;20047;-85
2023/03/30 08:34:22;;;;;;;5.60;1.75;;;;;;;;;;4940161;29;20090;-85
2023/03/30 08:36:47;;;;;;;6.78;2.00;;;;;;;;;;4921830;29;20470;-85
2023/03/30 08:39:14;;;;;;;6.72;1.80;;;;;;;;;;4926559;29;20043;-85
2023/03/30 08:41:52;;;;;;;8.95;2.00;;;;;;;;;;4923126;29;20552;-86
2023/03/30 08:44:35;;;;;;;4.47;1.92;;;;;;;;;;4923773;29;20044;-87
2023/03/30 08:47:03;;;;;;;7.33;1.83;;;;;;;;;;4925630;29;20116;-85
2023/03/30 08:49:34;;;;;;;6.55;1.83;;;;;;;;;;4925149;29;20040;-85
2023/03/30 08:52:03;;;;;;;7.32;1.90;;;;;;;;;;4927267;29;20488;-87
2023/03/30 08:54:31;;;;;;;6.60;2.17;;;;;;;;;;4924214;29;20032;-84
2023/03/30 08:57:11;;;;;;;5.60;1.75;;;;;;;;;;4924277;29;20035;-84
2023/03/30 08:59:55;;;;;;;6.20;2.25;;;;;;;;;;4921600;29;20489;-85
2023/03/30 09:02:31;;;;;;;8.68;1.30;;;;;;;;;;4923956;29;20098;-86
2023/03/30 09:05:00;;;;;;;5.90;1.50;;;;;;;;;;4924751;29;20032;-86
2023/03/30 09:07:41;;;;;;;9.07;1.80;;;;;;;;;;4922244;29;20040;-87
2023/03/30 09:10:12;;;;;;;6.00;1.63;;;;;;;;;;4924574;29;20048;-85
2023/03/30 09:12:49;;;;;;;8.95;1.92;;;;;;;;;;4924160;29;20434;-85
2023/03/30 09:15:41;;;;;;;7.78;1.50;;;;;;;;;;4925172;29;20078;-86
2023/03/30 09:18:36;;;;;;;4.88;1.60;;;;;;;;;;4909561;29;20059;-85
2023/03/30 09:21:04;;;;;;;5.90;2.00;;;;;;;;;;4926432;29;20060;-85
2023/03/30 09:23:31;;;;;;;8.40;1.73;;;;;;;;;;4922199;29;20510;-86
2023/03/30 09:26:10;;;;;;;5.50;1.52;;;;;;;;;;4925069;29;20038;-85
2023/03/30 09:29:07;;;;;;;5.32;1.40;;;;;;;;;;4926226;29;20741;-86
2023/03/30 09:31:44;;;;;;;8.50;2.13;;;;;;;;;;4923904;29;20091;-86
2023/03/30 09:34:18;;;;;;;7.85;1.70;;;;;;;;;;4921844;29;20044;-87
2023/03/30 09:37:03;;;;;;;4.78;1.40;;;;;;;;;;4929896;29;20033;-84
2023/03/30 09:39:30;;;;;;;14.23;1.77;;;;;;;;;;4941106;28;20557;-84
2023/03/30 09:42:15;;;;;;;9.85;1.70;;;;;;;;;;4927782;29;20179;-83
2023/03/30 09:44:51;;;;;;;8.45;1.73;;;;;;;;;;4923110;29;20044;-84
2023/03/30 09:47:27;;;;;;;8.13;1.80;;;;;;;;;;4939508;29;20044;-82
2023/03/30 09:50:06;;;;;;;8.88;2.30;;;;;;;;;;4925133;29;20066;-84
2023/03/30 09:52:36;;;;;;;7.90;2.40;;;;;;;;;;4922848;29;20119;-83
2023/03/30 09:55:16;;;;;;;7.10;1.70;;;;;;;;;;4928775;29;20024;-84
2023/03/30 09:57:42;;;;;;;7.72;1.60;;;;;;;;;;4923673;29;20107;-84
2023/03/30 10:00:31;;;;;;;7.20;1.75;;;;;;;;;;4926790;29;20047;-83
2023/03/30 10:03:05;;;;;;;7.93;1.80;;;;;;;;;;4927045;29;20070;-83
2023/03/30 10:05:34;;;;;;;6.22;1.58;;;;;;;;;;4940318;29;20681;-85
2023/03/30 10:08:19;;;;;;;9.07;1.75;;;;;;;;;;4922940;29;20115;-84
2023/03/30 10:10:51;;;;;;;10.15;1.90;;;;;;;;;;4928778;29;20034;-84
2023/03/30 10:13:18;;;;;;;7.30;1.90;;;;;;;;;;4927106;29;20032;-85
2023/03/30 10:15:50;;;;;;;14.63;2.08;;;;;;;;;;4943705;28;20068;-83
2023/03/30 10:18:30;;;;;;;8.25;1.75;;;;;;;;;;4944654;29;20105;-82
2023/03/30 10:21:28;;;;;;;15.32;2.30;;;;;;;;;;4927252;29;20184;-83
2023/03/30 10:24:02;;;;;;;7.40;1.70;;;;;;;;;;4918380;29;20078;-83
2023/03/30 10:26:29;;;;;;;12.80;3.83;;;;;;;;;;4926354;29;20036;-83
2023/03/30 10:29:06;;;;;;;10.35;2.53;;;;;;;;;;4930610;29;20039;-84
2023/03/30 10:31:36;;;;;;;13.73;3.28;;;;;;;;;;4925675;29;20071;-84
2023/03/30 10:34:04;;;;;;;9.63;2.70;;;;;;;;;;4928452;29;20031;-84
2023/03/30 10:36:39;;;;;;;10.95;3.28;;;;;;;;;;4924179;29;20043;-84
2023/03/30 10:39:29;;;;;;;10.82;2.78;;;;;;;;;;4926715;29;20044;-82
2023/03/30 10:41:55;;;;;;;8.10;2.25;;;;;;;;;;4924981;29;20505;-84
2023/03/30 10:44:26;;;;;;;7.35;1.88;;;;;;;;;;4926351;29;20043;-86
2023/03/30 10:47:15;;;;;;;12.75;1.90;;;;;;;;;;4928353;29;20035;-84
2023/03/30 10:49:48;;;;;;;7.78;1.88;;;;;;;;;;4921721;29;20571;-83
2023/03/30 10:52:21;;;;;;;7.55;2.38;;;;;;;;;;4937648;29;20047;-83
2023/03/30 10:55:24;;;;;;;8.20;1.77;;;;;;;;;;4928516;29;20411;-83
2023/03/30 10:58:11;;;;;;;13.40;2.80;;;;;;;;;;4915085;29;20048;-85
2023/03/30 11:00:59;;;;;;;8.57;2.10;;;;;;;;;;4945040;28;20495;-86
2023/03/30 11:03:28;;;;;;;11.63;1.98;;;;;;;;;;4925824;29;20039;-83
2023/03/30 11:05:57;;;;;;;7.82;1.77;;;;;;;;;;4929204;29;20079;-80
2023/03/30 11:08:31;;;;;;;7.68;2.33;;;;;;;;;;4928427;29;20040;-83
2023/03/30 11:10:58;;;;;;;7.47;1.80;;;;;;;;;;4926241;29;20043;-83
2023/03/30 11:13:30;;;;;;;6.95;1.83;;;;;;;;;;4933955;29;20038;-83
2023/03/30 11:16:00;;;;;;;12.10;2.85;;;;;;;;;;4933371;29;20036;-83
2023/03/30 11:18:50;;;;;;;8.32;1.77;;;;;;;;;;4927508;29;20044;-81
2023/03/30 11:21:45;;;;;;;5.85;2.13;;;;;;;;;;4930411;29;20102;-81
2023/03/30 11:24:19;;;;;;;5.68;1.60;;;;;;;;;;4926816;29;20040;-81
2023/03/30 11:27:17;;;;;;;8.30;2.30;;;;;;;;;;4927451;29;20119;-83
2023/03/30 11:29:58;;;;;;;8.82;2.13;;;;;;;;;;4927527;29;20048;-83
2023/03/30 11:32:33;;;;;;;6.72;1.50;;;;;;;;;;4923300;29;20036;-82
2023/03/30 11:35:19;;;;;;;9.50;1.90;;;;;;;;;;4921854;29;20867;-83
2023/03/30 11:38:05;;;;;;;10.82;2.20;;;;;;;;;;4917303;29;20456;-82
2023/03/30 11:40:42;;;;;;;12.10;2.10;;;;;;;;;;4931786;29;20059;-81
2023/03/30 11:43:11;;;;;;;8.70;1.90;;;;;;;;;;4931527;29;20046;-83
2023/03/30 11:46:07;;;;;;;8.43;2.67;;;;;;;;;;4934934;29;20044;-82
2023/03/30 11:48:46;;;;;;;15.15;5.65;;;;;;;;;;4933440;29;20055;-83
2023/03/30 11:51:56;;;;;;;12.25;3.58;;;;;;;;;;4922441;29;20035;-84
2023/03/30 11:54:48;;;;;;;8.35;2.00;;;;;;;;;;4923007;29;20495;-82
2023/03/30 11:57:33;;;;;;;10.48;2.13;;;;;;;;;;4908326;29;20054;-83
2023/03/30 12:00:29;;;;;;;11.48;3.63;;;;;;;;;;4925577;29;20043;-82
2023/03/30 12:03:41;;;;;;;9.68;1.90;;;;;;;;;;4920475;29;20501;-81
2023/03/30 12:06:36;;;;;;;11.70;1.73;;;;;;;;;;4883338;29;20193;-83
2023/03/30 12:09:20;;;;;;;12.10;2.13;;;;;;;;;;4878778;29;20040;-81
2023/03/30 12:11:48;;;;;;;;;;;;;;;;;;4928168;29;20139;-82
2023/03/30 12:14:27;;;;;;;16.08;2.15;;;;;;;;;;4936159;29;19918;-83
2023/03/30 12:16:58;;;;;;;9.80;2.15;;;;;;;;;;4938072;29;20468;-82
2023/03/30 12:19:27;;;;;;;26.80;2.55;;;;;;;;;;4936691;29;20043;-84
2023/03/30 12:22:00;;;;;;;14.13;2.40;;;;;;;;;;4933060;29;20031;-84
2023/03/30 12:25:04;;;;;;;10.95;2.38;;;;;;;;;;4923724;29;20036;-83
2023/03/30 12:27:34;;;;;;;16.70;2.92;;;;;;;;;;4927232;29;20059;-83
2023/03/30 12:30:43;;;;;;;13.15;2.70;;;;;;;;;;5021271;23;20046;-88
2023/03/30 12:33:27;;;;;;;12.25;2.55;;;;;;;;;;5013912;28;20115;-86
2023/03/30 12:36:24;;;;;;;19.88;3.00;;;;;;;;;;5057373;28;20051;-85
2023/03/30 12:38:56;;;;;;;16.58;3.08;;;;;;;;;;5041411;28;20044;-85
2023/03/30 12:41:25;;;;;;;23.38;3.45;;;;;;;;;;5042591;28;20684;-86
2023/03/30 12:44:31;;;;;;;15.77;2.63;;;;;;;;;;5044335;28;20085;-85
2023/03/30 12:47:42;;;;;;;12.63;2.83;;;;;;;;;;5043465;28;20041;-85
2023/03/30 12:50:29;;;;;;;11.13;2.95;;;;;;;;;;5042361;28;20042;-85
2023/03/30 12:53:16;;;;;;;14.63;2.90;;;;;;;;;;5039712;28;20037;-84
2023/03/30 12:55:52;;;;;;;10.23;2.63;;;;;;;;;;5042681;28;20038;-85
2023/03/30 12:58:37;;;;;;;13.02;2.72;;;;;;;;;;5041618;28;20040;-85
2023/03/30 13:01:43;;;;;;;15.25;2.58;;;;;;;;;;5043509;28;20102;-85
2023/03/30 13:04:37;;;;;;;7.82;2.28;;;;;;;;;;5032251;28;20494;-86
2023/03/30 13:07:30;;;;;;;12.40;2.58;;;;;;;;;;5044103;28;20041;-85
2023/03/30 13:10:20;;;;;;;9.73;2.35;;;;;;;;;;5044933;28;20128;-84
2023/03/30 13:12:48;;;;;;;7.45;2.30;;;;;;;;;;5041411;28;20046;-83
2023/03/30 13:15:32;;;;;;;7.35;3.00;;;;;;;;;;5043325;28;20041;-84
2023/03/30 13:18:11;;;;;;;6.60;1.85;;;;;;;;;;5042174;28;20038;-85
2023/03/30 13:20:46;;;;;;;6.60;1.90;;;;;;;;;;5043549;28;20044;-83
2023/03/30 13:23:11;;;;;;;5.07;2.05;;;;;;;;;;5044264;28;20437;-84
2023/03/30 13:25:38;;;;;;;7.50;2.28;;;;;;;;;;5044748;28;20034;-84
2023/03/30 13:28:28;;;;;;;4.75;1.90;;;;;;;;;;5042507;28;20457;-82
2023/03/30 13:31:01;;;;;;;5.18;1.98;;;;;;;;;;5037074;28;20058;-83
2023/03/30 13:33:28;;;;;;;7.80;2.38;;;;;;;;;;5039024;28;20041;-83
2023/03/30 13:35:59;;;;;;;7.50;2.45;;;;;;;;;;5036622;28;20288;-82
2023/03/30 13:38:24;;;;;;;5.65;1.85;;;;;;;;;;5039198;28;20041;-84
2023/03/30 13:41:08;;;;;;;4.35;1.90;;;;;;;;;;5037445;28;20063;-87
2023/03/30 13:44:08;;;;;;;6.28;1.70;;;;;;;;;;5038135;28;20060;-84
2023/03/30 13:46:55;;;;;;;3.28;1.73;;;;;;;;;;5037720;28;20042;-83
2023/03/30 13:49:33;;;;;;;7.20;1.40;;;;;;;;;;5041387;28;20044;-84
2023/03/30 13:52:09;;;;;;;2.25;1.15;;;;;;;;;;5040177;28;20065;-84
2023/03/30 13:54:38;;;;;;;3.63;1.30;;;;;;;;;;5040153;28;20041;-84
2023/03/30 13:57:17;;;;;;;2.88;1.20;;;;;;;;;;5042261;28;20037;-83
2023/03/30 14:00:06;;;;;;;3.05;1.20;;;;;;;;;;5040900;28;20029;-83
2023/03/30 14:02:37;;;;;;;2.50;1.30;;;;;;;;;;5040931;28;20044;-85
2023/03/30 14:05:21;;;;;;;4.15;1.33;;;;;;;;;;5039013;28;20112;-82
2023/03/30 14:07:47;;;;;;;36.22;19.45;;;;;;;;;;5041336;28;20029;-87
2023/03/30 14:10:19;;;;;;;8.05;3.97;;;;;;;;;;5040825;28;20103;-83
2023/03/30 14:12:48;;;;;;;6.78;4.03;;;;;;;;;;5038372;28;20033;-83
2023/03/30 14:15:15;;;;;;;4.60;2.72;;;;;;;;;;5040967;28;20056;-83
2023/03/30 14:17:44;;;;;;;3.35;1.63;;;;;;;;;;5041589;28;20049;-83
2023/03/30 14:20:49;;;;;;;4.53;2.00;;;;;;;;;;5036730;28;20041;-83
2023/03/30 14:23:25;;;;;;;23.10;9.90;;;;;;;;;;5040740;28;20033;-83
2023/03/30 14:25:56;;;;;;;13.45;6.25;;;;;;;;;;5039201;28;20044;-83
2023/03/30 14:28:22;;;;;;;7.18;3.40;;;;;;;;;;5040919;28;20083;-84
2023/03/30 14:31:03;;;;;;;4.30;2.40;;;;;;;;;;5039934;28;20491;-83
2023/03/30 14:33:31;;;;;;;3.95;1.90;;;;;;;;;;5042320;28;20485;-87
2023/03/30 14:35:59;;;;;;;2.80;1.33;;;;;;;;;;5038801;28;20037;-86
2023/03/30 14:38:37;;;;;;;4.00;1.60;;;;;;;;;;5041127;28;20043;-87
2023/03/30 14:41:15;;;;;;;3.15;1.88;;;;;;;;;;5040286;28;20028;-87
2023/03/30 14:43:44;;;;;;;4.68;1.80;;;;;;;;;;5042224;28;20029;-86
2023/03/30 14:46:11;;;;;;;5.22;1.80;;;;;;;;;;5058208;28;20084;-87
2023/03/30 14:48:42;;;;;;;3.08;1.83;;;;;;;;;;5037269;28;20068;-88
2023/03/30 14:51:36;;;;;;;3.38;1.83;;;;;;;;;;5039866;28;20040;-88
2023/03/30 14:54:02;;;;;;;5.45;1.98;;;;;;;;;;5040820;28;20105;-87
2023/03/30 14:56:29;;;;;;;2.92;1.20;;;;;;;;;;5041982;28;20083;-88
2023/03/30 14:58:55;;;;;;;3.03;1.30;;;;;;;;;;5043100;28;20059;-86
2023/03/30 15:01:31;;;;;;;2.25;1.35;;;;;;;;;;5047920;28;20037;-88
2023/03/30 15:04:01;;;;;;;2.15;1.00;;;;;;;;;;5045814;28;20465;-86
2023/03/30 15:06:28;;;;;;;4.68;1.92;;;;;;;;;;5061992;28;20097;-85
2023/03/30 15:09:00;;;;;;;4.57;1.77;;;;;;;;;;5047529;28;20048;-86
2023/03/30 15:11:28;;;;;;;3.13;1.50;;;;;;;;;;5048128;28;20045;-86
2023/03/30 15:13:56;;;;;;;3.17;1.50;;;;;;;;;;5060104;28;20033;-87
2023/03/30 15:16:26;;;;;;;5.28;1.60;;;;;;;;;;5045245;28;20043;-87
2023/03/30 15:19:00;;;;;;;6.07;1.90;;;;;;;;;;5046230;28;20033;-85
2023/03/30 15:21:28;;;;;;;4.40;2.10;;;;;;;;;;5046635;28;20108;-86
2023/03/30 15:23:53;;;;;;;5.10;2.55;;;;;;;;;;5045483;28;20397;-84
2023/03/30 15:26:20;;;;;;;5.40;2.00;;;;;;;;;;5042299;28;20033;-85
2023/03/30 15:28:51;;;;;;;3.38;1.80;;;;;;;;;;5046778;28;20033;-84
2023/03/30 15:31:18;;;;;;;4.20;2.10;;;;;;;;;;5047475;28;20099;-85
2023/03/30 15:33:53;;;;;;;3.97;2.30;;;;;;;;;;5047453;28;20513;-84
2023/03/30 15:36:24;;;;;;;3.38;1.70;;;;;;;;;;5046005;28;20060;-83